Terminal Aerodrome Forecast
Issued by NWS Lake Charles, LA

Home | Current Version | Previous Version | Text Only | Print | Product List | Glossary On
Versions: 1 2 3 4 5 6 7 8 9 10 11 12 13 14 15 16 17 18 19
136
FTUS44 KLCH 282336
TAFAEX
TAF
KAEX 282336Z 2900/2924 VRB04KT P6SM VCTS FEW015CB SCT030 BKN050
      TEMPO 2900/2902 4SM SHRA SCT025 BKN040
     FM290200 VRB03KT P6SM FEW050 BKN200
     FM291100 00000KT 5SM BR SCT015
     FM291400 06007KT P6SM FEW012 SCT020
     FM291900 08009KT P6SM VCTS FEW015CB SCT025 BKN050=

USA.gov is the U.S. government's official web portal to all federal, state and local government web resources and services.